createdAt,value
2023-04-13T00:00:42.005Z,3.72
2023-04-13T00:03:12.200Z,2.90
2023-04-13T00:05:39.493Z,1.70
2023-04-13T00:08:07.031Z,4.85
2023-04-13T00:10:36.295Z,3.03
2023-04-13T00:13:05.469Z,6.65
2023-04-13T00:15:34.669Z,2.45
2023-04-13T00:18:01.845Z,1.40
2023-04-13T00:20:28.761Z,2.40
2023-04-13T00:22:55.407Z,1.95
2023-04-13T00:25:22.301Z,6.15
2023-04-13T00:27:53.129Z,3.75
2023-04-13T00:30:21.213Z,1.30
2023-04-13T00:32:48.767Z,3.13
2023-04-13T00:35:24.785Z,1.85
2023-04-13T00:37:52.784Z,2.47
2023-04-13T00:40:19.329Z,3.03
2023-04-13T00:42:47.451Z,2.38
2023-04-13T00:45:14.521Z,3.20
2023-04-13T00:47:43.505Z,1.63
2023-04-13T00:50:10.428Z,3.28
2023-04-13T00:52:40.421Z,0.90
2023-04-13T00:55:07.700Z,3.22
2023-04-13T00:57:35.250Z,4.25
2023-04-13T01:00:06.769Z,5.15
2023-04-13T01:02:34.245Z,1.10
2023-04-13T01:05:02.327Z,2.20
2023-04-13T01:07:44.709Z,3.28
2023-04-13T01:10:44.937Z,2.03
2023-04-13T01:13:20.680Z,1.83
2023-04-13T01:16:01.529Z,2.30
2023-04-13T01:18:30.424Z,4.75
2023-04-13T01:20:56.870Z,2.60
2023-04-13T01:23:32.159Z,4.15
2023-04-13T01:26:04.096Z,5.05
2023-04-13T01:28:31.002Z,9.52
2023-04-13T01:30:57.713Z,4.88
2023-04-13T01:33:25.401Z,6.40
2023-04-13T01:35:52.180Z,7.40
2023-04-13T01:38:24.530Z,3.97
2023-04-13T01:40:51.775Z,3.65
2023-04-13T01:43:20.596Z,2.70
2023-04-13T01:45:53.513Z,1.83
2023-04-13T01:48:28.127Z,2.13
2023-04-13T01:51:00.671Z,1.08
2023-04-13T01:53:46.455Z,8.00
2023-04-13T01:56:15.683Z,5.85
2023-04-13T01:58:43.004Z,3.55
2023-04-13T02:01:09.624Z,4.05
2023-04-13T02:03:36.350Z,3.05
2023-04-13T02:06:02.932Z,3.30
2023-04-13T02:08:32.515Z,7.38
2023-04-13T02:11:00.941Z,4.45
2023-04-13T02:13:27.391Z,5.28
2023-04-13T02:15:53.947Z,1.60
2023-04-13T02:18:20.577Z,3.92
2023-04-13T02:20:47.225Z,4.00
2023-04-13T02:23:15.005Z,2.03
2023-04-13T02:25:44.756Z,5.68
2023-04-13T02:28:12.424Z,3.92
2023-04-13T02:30:39.067Z,4.75
2023-04-13T02:33:07.048Z,7.32
2023-04-13T02:35:35.505Z,2.40
2023-04-13T02:40:28.698Z,2.50
2023-04-13T02:42:57.417Z,4.80
2023-04-13T02:45:23.886Z,6.88
2023-04-13T02:47:50.575Z,5.10
2023-04-13T02:50:18.586Z,5.28
2023-04-13T02:52:45.091Z,5.93
2023-04-13T02:55:11.674Z,5.13
2023-04-13T02:57:38.318Z,7.00
2023-04-13T03:00:12.293Z,3.47
2023-04-13T03:02:42.315Z,2.90
2023-04-13T03:05:09.431Z,5.78
2023-04-13T03:07:36.385Z,0.93
2023-04-13T03:10:05.714Z,5.68
2023-04-13T03:12:32.709Z,2.30
2023-04-13T03:15:10.935Z,1.00
2023-04-13T03:17:41.266Z,4.40
2023-04-13T03:20:16.706Z,2.90
2023-04-13T03:22:44.966Z,2.67
2023-04-13T03:25:11.600Z,4.03
2023-04-13T03:27:37.989Z,3.75
2023-04-13T03:30:04.748Z,2.90
2023-04-13T03:32:32.023Z,3.60
2023-04-13T03:34:58.899Z,6.00
2023-04-13T03:37:30.020Z,2.35
2023-04-13T03:39:56.660Z,1.65
2023-04-13T03:42:23.443Z,2.47
2023-04-13T03:44:49.844Z,2.22
2023-04-13T03:47:16.806Z,1.52
2023-04-13T03:49:43.156Z,3.20
2023-04-13T03:52:09.622Z,4.50
2023-04-13T03:54:36.088Z,1.90
2023-04-13T03:57:04.471Z,3.30
2023-04-13T03:59:30.994Z,2.22
2023-04-13T04:01:57.840Z,2.22
2023-04-13T04:04:24.516Z,2.95
2023-04-13T04:06:51.346Z,1.75
2023-04-13T04:09:18.478Z,2.95
2023-04-13T04:11:45.134Z,2.50
2023-04-13T04:14:11.799Z,2.03
2023-04-13T04:16:38.246Z,2.40
2023-04-13T04:19:04.612Z,2.10
2023-04-13T04:21:34.439Z,3.20
2023-04-13T04:24:06.413Z,2.22
2023-04-13T04:26:32.915Z,2.45
2023-04-13T04:29:02.938Z,4.60
2023-04-13T04:31:36.870Z,3.22
2023-04-13T04:34:03.882Z,4.05
2023-04-13T04:36:30.476Z,2.83
2023-04-13T04:39:02.572Z,5.72
2023-04-13T04:41:30.912Z,2.72
2023-04-13T04:43:57.812Z,1.10
2023-04-13T04:46:29.544Z,2.42
2023-04-13T04:49:00.453Z,3.83
2023-04-13T04:51:27.595Z,3.63
2023-04-13T04:53:54.186Z,1.42
2023-04-13T04:56:21.779Z,2.17
2023-04-13T04:58:48.273Z,3.63
2023-04-13T05:01:14.867Z,1.75
2023-04-13T05:03:41.390Z,3.38
2023-04-13T05:06:08.575Z,4.47
2023-04-13T05:08:35.157Z,3.05
2023-04-13T05:11:01.587Z,3.75
2023-04-13T05:13:28.069Z,2.95
2023-04-13T05:15:54.410Z,2.45
2023-04-13T05:18:20.813Z,2.92
2023-04-13T05:20:47.255Z,3.38
2023-04-13T05:23:13.903Z,4.30
2023-04-13T05:25:40.671Z,2.17
2023-04-13T05:28:07.220Z,4.63
2023-04-13T05:30:34.086Z,1.70
2023-04-13T05:33:05.558Z,3.47
2023-04-13T05:35:32.115Z,1.55
2023-04-13T05:38:00.717Z,5.30
2023-04-13T05:42:54.182Z,3.03
2023-04-13T05:45:21.498Z,4.00
2023-04-13T05:47:48.090Z,3.05
2023-04-13T05:50:14.549Z,5.07
2023-04-13T05:52:40.854Z,3.05
2023-04-13T05:55:07.544Z,3.80
2023-04-13T05:57:34.253Z,1.92
2023-04-13T06:00:00.723Z,2.80
2023-04-13T06:02:27.352Z,3.63
2023-04-13T06:04:55.177Z,2.25
2023-04-13T06:07:22.618Z,0.85
2023-04-13T06:09:49.752Z,4.40
2023-04-13T06:12:18.153Z,4.43
2023-04-13T06:14:44.911Z,1.67
2023-04-13T06:17:11.352Z,3.00
2023-04-13T06:19:38.004Z,1.55
2023-04-13T06:22:04.413Z,2.35
2023-04-13T06:24:33.718Z,4.28
2023-04-13T06:27:00.112Z,5.63
2023-04-13T06:29:26.567Z,4.28
2023-04-13T06:31:52.906Z,4.43
2023-04-13T06:34:19.333Z,4.03
2023-04-13T06:36:45.682Z,1.95
2023-04-13T06:39:12.032Z,2.47
2023-04-13T06:41:38.342Z,2.80
2023-04-13T06:44:04.897Z,3.70
2023-04-13T06:46:31.337Z,5.05
2023-04-13T06:48:58.105Z,3.25
2023-04-13T06:51:24.569Z,2.42
2023-04-13T06:53:52.448Z,2.92
2023-04-13T06:56:18.829Z,2.60
2023-04-13T06:58:45.471Z,2.30
2023-04-13T07:01:12.302Z,4.70
2023-04-13T07:03:38.974Z,3.78
2023-04-13T07:06:06.541Z,3.80
2023-04-13T07:08:34.275Z,3.92
2023-04-13T07:11:02.280Z,4.18
2023-04-13T07:13:28.980Z,5.28
2023-04-13T07:15:55.627Z,2.20
2023-04-13T07:18:22.012Z,2.13
2023-04-13T07:20:48.375Z,4.95
2023-04-13T07:23:15.021Z,3.40
2023-04-13T07:25:41.644Z,4.75
2023-04-13T07:28:08.149Z,4.85
2023-04-13T07:30:34.799Z,3.55
2023-04-13T07:33:01.709Z,5.38
2023-04-13T07:35:28.293Z,4.72
2023-04-13T07:37:55.305Z,4.38
2023-04-13T07:40:21.646Z,3.67
2023-04-13T07:42:51.409Z,2.78
2023-04-13T07:45:19.918Z,2.13
2023-04-13T07:50:13.380Z,1.92
2023-04-13T07:52:39.751Z,3.72
2023-04-13T07:55:07.508Z,5.55
2023-04-13T07:57:33.854Z,2.70
2023-04-13T08:00:00.286Z,2.75
2023-04-13T08:02:26.721Z,4.25
2023-04-13T08:04:53.377Z,3.65
2023-04-13T08:07:20.948Z,8.57
2023-04-13T08:09:49.526Z,5.63
2023-04-13T08:17:11.352Z,4.47
2023-04-13T08:19:37.942Z,3.42
2023-04-13T08:22:05.236Z,6.22
2023-04-13T08:24:32.186Z,2.70
2023-04-13T08:26:58.955Z,4.07
2023-04-13T08:29:26.302Z,3.42
2023-04-13T08:31:53.083Z,4.38
2023-04-13T08:34:19.704Z,2.13
2023-04-13T08:36:46.185Z,3.15
2023-04-13T08:39:13.275Z,4.57
2023-04-13T08:41:43.963Z,3.65
2023-04-13T08:44:12.389Z,3.25
2023-04-13T08:46:45.120Z,1.92
2023-04-13T08:49:12.681Z,2.97
2023-04-13T08:51:42.169Z,6.25
2023-04-13T08:54:08.948Z,2.60
2023-04-13T08:56:45.323Z,7.32
2023-04-13T08:59:15.297Z,4.57
2023-04-13T09:01:44.340Z,5.65
2023-04-13T09:04:13.741Z,5.70
2023-04-13T09:06:44.884Z,3.00
2023-04-13T09:09:15.809Z,6.50
2023-04-13T09:11:43.482Z,4.60
2023-04-13T09:14:10.194Z,8.00
2023-04-13T09:16:43.618Z,5.85
2023-04-13T09:19:11.157Z,2.92
2023-04-13T09:21:43.105Z,4.85
2023-04-13T09:24:10.822Z,3.33
2023-04-13T09:26:41.810Z,2.70
2023-04-13T09:29:11.651Z,2.08
2023-04-13T09:31:39.819Z,3.70
2023-04-13T09:34:08.179Z,1.45
2023-04-13T09:36:39.444Z,5.20
2023-04-13T09:39:13.661Z,5.68
2023-04-13T09:41:40.829Z,4.10
2023-04-13T09:44:20.769Z,2.22
2023-04-13T09:47:03.954Z,3.15
2023-04-13T09:49:40.822Z,3.58
2023-04-13T09:52:18.062Z,5.13
2023-04-13T09:54:49.650Z,6.47
2023-04-13T09:57:27.138Z,4.03
2023-04-13T09:59:54.882Z,4.25
2023-04-13T10:02:21.898Z,4.00
2023-04-13T10:04:48.402Z,8.55
2023-04-13T10:07:14.798Z,6.82
2023-04-13T10:09:44.608Z,7.35
2023-04-13T10:12:12.289Z,5.50
2023-04-13T10:14:41.040Z,2.57
2023-04-13T10:17:44.370Z,5.10
2023-04-13T10:20:13.610Z,4.47
2023-04-13T10:22:44.032Z,6.13
2023-04-13T10:25:31.527Z,4.25
2023-04-13T10:28:00.806Z,5.43
2023-04-13T10:30:28.092Z,3.80
2023-04-13T10:33:09.589Z,6.35
2023-04-13T10:35:42.914Z,6.55
2023-04-13T10:38:10.714Z,3.40
2023-04-13T10:40:47.640Z,6.22
2023-04-13T10:43:30.975Z,5.00
2023-04-13T10:46:13.414Z,6.03
2023-04-13T10:48:43.158Z,7.72
2023-04-13T10:51:09.626Z,4.35
2023-04-13T10:53:37.003Z,7.60
2023-04-13T10:56:05.385Z,6.05
2023-04-13T10:58:33.126Z,4.93
2023-04-13T11:01:00.075Z,5.35
2023-04-13T11:03:28.423Z,6.10
2023-04-13T11:05:59.665Z,7.65
2023-04-13T11:08:27.801Z,4.18
2023-04-13T11:10:55.563Z,3.15
2023-04-13T11:13:25.165Z,4.53
2023-04-13T11:15:51.953Z,13.18
2023-04-13T11:18:28.319Z,8.13
2023-04-13T11:20:55.382Z,11.32
2023-04-13T11:23:24.123Z,7.10
2023-04-13T11:25:56.106Z,8.60
2023-04-13T11:28:23.579Z,7.15
2023-04-13T11:30:57.012Z,7.13
2023-04-13T11:33:27.668Z,6.05
2023-04-13T11:35:58.912Z,10.70
2023-04-13T11:38:25.768Z,9.52
2023-04-13T11:40:58.887Z,8.40
2023-04-13T11:43:34.548Z,9.15
2023-04-13T11:46:01.178Z,9.40
2023-04-13T11:48:27.705Z,5.82
2023-04-13T11:50:54.975Z,6.53
2023-04-13T11:53:21.960Z,12.10
2023-04-13T11:55:53.406Z,9.65
2023-04-13T11:58:21.281Z,7.60
2023-04-13T12:00:49.270Z,12.30
2023-04-13T12:03:34.509Z,11.02
2023-04-13T12:06:05.866Z,10.35
2023-04-13T12:08:33.890Z,7.78
2023-04-13T12:13:48.453Z,7.38
2023-04-13T12:19:06.975Z,13.30
2023-04-13T12:21:35.200Z,19.95
2023-04-13T12:24:05.459Z,18.30
2023-04-13T12:29:05.250Z,38.30
2023-04-13T12:31:39.279Z,22.55
2023-04-13T12:34:07.898Z,17.42
2023-04-13T12:36:36.701Z,10.48
2023-04-13T12:39:04.757Z,20.38
2023-04-13T12:41:32.360Z,11.13
2023-04-13T12:43:59.252Z,9.98
2023-04-13T12:46:26.592Z,21.30
2023-04-13T12:48:53.383Z,10.52
2023-04-13T12:51:19.989Z,10.82
2023-04-13T12:53:46.420Z,16.77
2023-04-13T12:56:12.804Z,11.52
2023-04-13T12:58:39.239Z,11.55
2023-04-13T13:01:05.730Z,12.63
2023-04-13T13:03:32.255Z,9.95
2023-04-13T13:05:58.671Z,12.98
2023-04-13T13:08:26.166Z,14.15
2023-04-13T13:10:53.225Z,8.52
2023-04-13T13:13:19.668Z,10.75
2023-04-13T13:15:46.440Z,7.72
2023-04-13T13:18:13.767Z,8.00
2023-04-13T13:20:41.616Z,12.75
2023-04-13T13:23:12.424Z,10.02
2023-04-13T13:25:52.438Z,9.57
2023-04-13T13:28:29.747Z,14.75
2023-04-13T13:30:56.130Z,17.20
2023-04-13T13:33:23.391Z,11.30
2023-04-13T13:35:50.000Z,10.75
2023-04-13T13:38:16.619Z,8.55
2023-04-13T13:40:43.161Z,9.63
2023-04-13T13:43:13.019Z,12.98
2023-04-13T13:45:39.709Z,12.10
2023-04-13T13:48:06.689Z,9.18
2023-04-13T13:50:33.063Z,9.70
2023-04-13T13:53:04.342Z,7.90
2023-04-13T13:55:31.906Z,10.00
2023-04-13T13:57:58.629Z,10.30
2023-04-13T14:00:25.647Z,11.02
2023-04-13T14:02:53.220Z,10.45
2023-04-13T14:05:22.021Z,8.53
2023-04-13T14:07:48.788Z,12.85
2023-04-13T14:10:15.513Z,9.25
2023-04-13T14:12:44.474Z,7.88
2023-04-13T14:15:12.322Z,7.05
2023-04-13T14:17:39.770Z,11.10
2023-04-13T14:20:12.744Z,9.68
2023-04-13T14:22:40.648Z,11.18
2023-04-13T14:25:09.225Z,15.30
2023-04-13T14:27:36.179Z,10.60
2023-04-13T14:30:03.056Z,10.52
2023-04-13T14:32:29.554Z,13.13
2023-04-13T14:35:00.286Z,8.55
2023-04-13T14:37:27.787Z,13.27
2023-04-13T14:39:55.289Z,12.10
2023-04-13T14:42:24.372Z,7.28
2023-04-13T14:44:54.242Z,11.10
2023-04-13T14:47:20.894Z,11.75
2023-04-13T14:49:47.825Z,13.88
2023-04-13T14:52:15.174Z,10.95
2023-04-13T14:54:41.810Z,11.00
2023-04-13T14:57:09.674Z,8.35
2023-04-13T14:59:36.010Z,10.73
2023-04-13T15:02:03.902Z,12.18
2023-04-13T15:04:31.378Z,10.40
2023-04-13T15:06:58.819Z,6.10
2023-04-13T15:09:25.711Z,6.68
2023-04-13T15:11:55.999Z,9.07
2023-04-13T15:14:22.701Z,12.02
2023-04-13T15:16:49.245Z,6.72
2023-04-13T15:19:15.662Z,9.02
2023-04-13T15:21:42.259Z,9.48
2023-04-13T15:24:11.373Z,10.63
2023-04-13T15:26:42.981Z,14.45
2023-04-13T15:29:09.583Z,10.32
2023-04-13T15:31:37.482Z,11.50
2023-04-13T15:34:09.067Z,11.20
2023-04-13T15:36:36.385Z,9.73
2023-04-13T15:39:04.381Z,10.05
2023-04-13T15:41:31.516Z,10.75
2023-04-13T15:44:01.412Z,9.20
2023-04-13T15:46:27.972Z,9.70
2023-04-13T15:48:56.130Z,10.20
2023-04-13T15:51:23.315Z,13.70
2023-04-13T15:53:49.768Z,9.50
2023-04-13T15:56:16.682Z,14.57
2023-04-13T15:58:43.163Z,6.03
2023-04-13T16:01:11.263Z,9.13
2023-04-13T16:03:38.323Z,9.93
2023-04-13T16:06:05.095Z,8.07
2023-04-13T16:08:31.712Z,9.60
2023-04-13T16:10:58.303Z,11.00
2023-04-13T16:13:34.660Z,7.38
2023-04-13T16:16:08.011Z,12.40
2023-04-13T16:18:36.754Z,9.05
2023-04-13T16:21:03.973Z,7.60
2023-04-13T16:23:37.319Z,14.27
2023-04-13T16:26:04.021Z,10.07
2023-04-13T16:28:32.394Z,10.57
2023-04-13T16:30:59.283Z,8.63
2023-04-13T16:33:26.203Z,11.05
2023-04-13T16:35:52.641Z,11.52
2023-04-13T16:38:19.045Z,8.35
2023-04-13T16:40:45.848Z,13.93
2023-04-13T16:43:12.651Z,10.05
2023-04-13T16:45:39.039Z,7.22
2023-04-13T16:48:05.940Z,10.73
2023-04-13T16:50:32.771Z,9.90
2023-04-13T16:53:02.276Z,4.35
2023-04-13T16:55:28.786Z,10.13
2023-04-13T16:57:58.031Z,8.43
2023-04-13T17:00:24.797Z,6.68
2023-04-13T17:02:51.427Z,9.10
2023-04-13T17:05:19.537Z,8.07
2023-04-13T17:07:48.017Z,9.20
2023-04-13T17:10:14.606Z,8.88
2023-04-13T17:12:42.977Z,9.75
2023-04-13T17:15:10.043Z,7.43
2023-04-13T17:17:38.177Z,8.85
2023-04-13T17:20:06.720Z,7.22
2023-04-13T17:22:33.604Z,7.88
2023-04-13T17:25:00.902Z,11.50
2023-04-13T17:27:27.581Z,9.68
2023-04-13T17:29:53.983Z,9.27
2023-04-13T17:32:21.835Z,9.32
2023-04-13T17:34:49.386Z,9.35
2023-04-13T17:37:15.957Z,9.90
2023-04-13T17:39:47.281Z,10.75
2023-04-13T17:42:14.685Z,11.55
2023-04-13T17:44:41.720Z,8.38
2023-04-13T17:47:09.215Z,7.35
2023-04-13T17:49:36.854Z,12.68
2023-04-13T17:52:03.906Z,9.07
2023-04-13T17:54:30.332Z,9.13
2023-04-13T17:56:56.774Z,10.02
2023-04-13T17:59:23.377Z,10.90
2023-04-13T18:01:52.172Z,10.20
2023-04-13T18:04:19.071Z,8.38
2023-04-13T18:06:46.048Z,9.02
2023-04-13T18:09:12.737Z,8.52
2023-04-13T18:11:39.139Z,10.95
2023-04-13T18:14:05.879Z,11.23
2023-04-13T18:16:32.567Z,6.57
2023-04-13T18:18:59.051Z,9.25
2023-04-13T18:21:25.935Z,9.23
2023-04-13T18:23:53.997Z,8.43
2023-04-13T18:26:21.907Z,8.35
2023-04-13T18:28:48.421Z,11.02
2023-04-13T18:31:14.859Z,7.35
2023-04-13T18:33:44.574Z,10.70
2023-04-13T18:36:18.742Z,7.00
2023-04-13T18:38:45.943Z,8.48
2023-04-13T18:41:12.992Z,6.75
2023-04-13T18:43:39.631Z,9.90
2023-04-13T18:46:08.839Z,12.55
2023-04-13T18:48:35.975Z,9.43
2023-04-13T18:51:03.385Z,10.80
2023-04-13T18:53:30.523Z,9.60
2023-04-13T18:55:59.118Z,8.18
2023-04-13T19:00:53.937Z,17.77
2023-04-13T19:03:20.620Z,13.35
2023-04-13T19:05:47.691Z,12.13
2023-04-13T19:08:15.266Z,10.13
2023-04-13T19:10:42.238Z,8.70
2023-04-13T19:13:09.042Z,8.75
2023-04-13T19:15:35.863Z,13.57
2023-04-13T19:18:04.001Z,14.85
2023-04-13T19:20:30.433Z,15.30
2023-04-13T19:22:56.842Z,18.08
2023-04-13T19:25:23.440Z,17.65
2023-04-13T19:27:52.847Z,14.05
2023-04-13T19:30:19.786Z,21.85
2023-04-13T19:32:48.314Z,12.70
2023-04-13T19:37:42.027Z,8.95
2023-04-13T19:40:15.417Z,10.05
2023-04-13T19:42:43.379Z,12.65
2023-04-13T19:45:12.058Z,10.18
2023-04-13T19:47:43.023Z,11.35
2023-04-13T19:50:12.517Z,8.77
2023-04-13T19:52:39.882Z,10.35
2023-04-13T19:55:08.429Z,14.52
2023-04-13T20:00:07.206Z,13.93
2023-04-13T20:02:33.667Z,15.18
2023-04-13T20:05:00.412Z,17.40
2023-04-13T20:07:27.036Z,16.55
2023-04-13T20:09:54.448Z,24.95
2023-04-13T20:12:22.051Z,21.52
2023-04-13T20:14:49.376Z,23.17
2023-04-13T20:17:17.077Z,22.27
2023-04-13T20:19:43.683Z,20.37
2023-04-13T20:22:10.404Z,24.65
2023-04-13T20:24:36.756Z,22.00
2023-04-13T20:27:03.189Z,17.33
2023-04-13T20:29:29.835Z,19.33
2023-04-13T20:31:56.263Z,17.30
2023-04-13T20:34:24.399Z,17.25
2023-04-13T20:36:51.060Z,16.48
2023-04-13T20:39:25.204Z,18.83
2023-04-13T20:41:56.063Z,13.88
2023-04-13T20:44:25.805Z,14.93
2023-04-13T20:46:55.479Z,23.67
2023-04-13T20:49:26.833Z,16.13
2023-04-13T20:51:56.870Z,18.60
2023-04-13T20:54:26.574Z,18.98
2023-04-13T20:56:53.184Z,17.15
2023-04-13T20:59:19.588Z,9.25
2023-04-13T21:01:46.351Z,16.60
2023-04-13T21:04:12.825Z,14.98
2023-04-13T21:06:40.901Z,12.95
2023-04-13T21:09:08.553Z,8.73
2023-04-13T21:11:35.365Z,9.07
2023-04-13T21:14:02.563Z,12.02
2023-04-13T21:16:29.319Z,14.40
2023-04-13T21:18:56.094Z,11.07
2023-04-13T21:21:23.815Z,12.57
2023-04-13T21:23:51.227Z,17.17
2023-04-13T21:26:17.699Z,11.77
2023-04-13T21:28:45.454Z,15.68
2023-04-13T21:31:11.988Z,11.35
2023-04-13T21:33:39.458Z,13.35
2023-04-13T21:38:42.823Z,12.20
2023-04-13T21:41:20.345Z,20.33
2023-04-13T21:43:47.381Z,11.23
2023-04-13T21:46:15.347Z,11.77
2023-04-13T21:48:42.376Z,10.82
2023-04-13T21:51:09.602Z,12.05
2023-04-13T21:53:36.985Z,14.20
2023-04-13T21:56:04.820Z,10.73
2023-04-13T21:58:39.629Z,10.50
2023-04-13T22:01:07.237Z,15.88
2023-04-13T22:03:42.142Z,22.67
2023-04-13T22:06:10.582Z,18.17
2023-04-13T22:08:38.463Z,15.10
2023-04-13T22:11:05.324Z,17.75
2023-04-13T22:13:32.124Z,16.98
2023-04-13T22:15:58.676Z,16.58
2023-04-13T22:18:26.937Z,18.90
2023-04-13T22:20:53.513Z,20.40
2023-04-13T22:23:20.116Z,18.67
2023-04-13T22:25:59.409Z,23.63
2023-04-13T22:28:28.866Z,16.02
2023-04-13T22:30:55.549Z,16.00
2023-04-13T22:33:22.208Z,18.92
2023-04-13T22:35:51.903Z,14.90
2023-04-13T22:38:19.146Z,17.23
2023-04-13T22:40:45.731Z,16.77
2023-04-13T22:43:12.113Z,16.60
2023-04-13T22:45:38.616Z,21.58
2023-04-13T22:48:05.592Z,16.15
2023-04-13T22:50:32.295Z,16.00
2023-04-13T22:52:58.679Z,20.35
2023-04-13T22:55:25.178Z,18.08
2023-04-13T22:57:51.501Z,20.42
2023-04-13T23:00:20.589Z,15.00
2023-04-13T23:02:50.249Z,15.15
2023-04-13T23:05:17.467Z,20.73
2023-04-13T23:07:44.112Z,21.52
2023-04-13T23:10:10.749Z,24.65
2023-04-13T23:12:37.407Z,19.42
2023-04-13T23:15:04.421Z,17.88
2023-04-13T23:17:31.072Z,20.17
2023-04-13T23:20:00.268Z,16.35
2023-04-13T23:22:28.196Z,16.27
2023-04-13T23:24:54.512Z,18.10
2023-04-13T23:27:21.163Z,14.60
2023-04-13T23:29:50.439Z,18.95
2023-04-13T23:32:18.127Z,18.05
2023-04-13T23:34:44.500Z,18.90
2023-04-13T23:37:11.508Z,18.02
2023-04-13T23:39:37.990Z,22.42
2023-04-13T23:42:04.729Z,21.77
2023-04-13T23:44:31.282Z,24.02
2023-04-13T23:46:57.849Z,16.33
2023-04-13T23:49:24.268Z,15.65
2023-04-13T23:51:50.814Z,14.38
2023-04-13T23:54:17.222Z,15.85
2023-04-13T23:56:43.877Z,13.38
2023-04-13T23:59:10.638Z,12.27
